createdAt,value
2023-03-16T00:01:31.339Z,4.10
2023-03-16T00:03:59.175Z,3.97
2023-03-16T00:06:26.916Z,4.20
2023-03-16T00:08:58.866Z,4.53
2023-03-16T00:11:27.771Z,4.53
2023-03-16T00:13:55.566Z,4.55
2023-03-16T00:16:25.344Z,4.10
2023-03-16T00:18:53.157Z,4.55
2023-03-16T00:21:21.167Z,4.65
2023-03-16T00:23:48.904Z,4.50
2023-03-16T00:26:16.696Z,4.60
2023-03-16T00:28:44.467Z,4.50
2023-03-16T00:31:14.780Z,3.72
2023-03-16T00:33:44.115Z,4.63
2023-03-16T00:36:12.835Z,4.88
2023-03-16T00:38:45.063Z,4.80
2023-03-16T00:41:15.044Z,4.72
2023-03-16T00:43:45.402Z,4.50
2023-03-16T00:46:15.446Z,4.13
2023-03-16T00:48:48.023Z,5.03
2023-03-16T00:51:17.918Z,5.00
2023-03-16T00:53:46.893Z,5.50
2023-03-16T00:56:15.436Z,5.43
2023-03-16T00:58:44.282Z,4.72
2023-03-16T01:01:14.828Z,4.40
2023-03-16T01:03:42.805Z,5.22
2023-03-16T01:06:14.907Z,5.15
2023-03-16T01:08:43.002Z,5.03
2023-03-16T01:11:13.096Z,5.28
2023-03-16T01:13:41.058Z,5.63
2023-03-16T01:16:11.013Z,5.70
2023-03-16T01:18:38.808Z,5.25
2023-03-16T01:21:09.265Z,5.90
2023-03-16T01:23:38.545Z,5.60
2023-03-16T01:26:08.348Z,5.10
2023-03-16T01:28:36.439Z,5.80
2023-03-16T01:31:06.981Z,5.55
2023-03-16T01:33:35.977Z,5.75
2023-03-16T01:36:07.756Z,5.05
2023-03-16T01:38:45.930Z,5.75
2023-03-16T01:41:14.266Z,5.68
2023-03-16T01:43:43.534Z,5.70
2023-03-16T01:46:22.145Z,5.22
2023-03-16T01:48:57.523Z,5.72
2023-03-16T01:51:32.703Z,5.35
2023-03-16T01:54:06.413Z,5.45
2023-03-16T01:56:38.882Z,5.57
2023-03-16T01:59:10.984Z,5.53
2023-03-16T02:01:39.677Z,5.20
2023-03-16T02:04:18.073Z,5.80
2023-03-16T02:06:48.550Z,5.18
2023-03-16T02:09:19.994Z,5.47
2023-03-16T02:11:48.680Z,5.28
2023-03-16T02:14:16.463Z,5.50
2023-03-16T02:16:45.061Z,5.22
2023-03-16T02:19:21.058Z,5.65
2023-03-16T02:21:56.929Z,5.97
2023-03-16T02:24:26.228Z,5.63
2023-03-16T02:26:57.987Z,5.40
2023-03-16T02:29:56.348Z,5.60
2023-03-16T02:32:27.985Z,6.07
2023-03-16T02:34:57.133Z,5.93
2023-03-16T02:37:25.148Z,5.10
2023-03-16T02:39:53.697Z,5.10
2023-03-16T02:42:26.605Z,4.65
2023-03-16T02:45:01.143Z,5.43
2023-03-16T02:47:37.972Z,5.75
2023-03-16T02:52:35.112Z,5.80
2023-03-16T02:55:03.445Z,4.80
2023-03-16T02:57:31.672Z,5.53
2023-03-16T03:00:11.559Z,5.38
2023-03-16T03:02:40.192Z,5.80
2023-03-16T03:05:08.664Z,5.07
2023-03-16T03:07:37.191Z,5.47
2023-03-16T03:10:07.665Z,5.70
2023-03-16T03:12:36.013Z,5.55
2023-03-16T03:15:09.793Z,6.15
2023-03-16T03:17:46.952Z,5.90
2023-03-16T03:20:16.869Z,4.75
2023-03-16T03:22:46.137Z,5.22
2023-03-16T03:25:15.937Z,5.78
2023-03-16T03:27:44.808Z,5.07
2023-03-16T03:30:19.591Z,5.20
2023-03-16T03:32:49.063Z,5.53
2023-03-16T03:35:19.449Z,4.90
2023-03-16T03:37:47.348Z,5.53
2023-03-16T03:40:18.966Z,6.00
2023-03-16T03:42:49.315Z,5.90
2023-03-16T03:45:18.659Z,4.32
2023-03-16T03:47:46.506Z,5.40
2023-03-16T03:50:19.939Z,5.75
2023-03-16T03:52:55.040Z,5.57
2023-03-16T03:55:23.043Z,5.78
2023-03-16T03:57:50.964Z,4.55
2023-03-16T04:00:21.960Z,5.90
2023-03-16T04:02:50.500Z,5.78
2023-03-16T04:05:44.309Z,5.07
2023-03-16T04:08:13.259Z,5.82
2023-03-16T04:10:41.369Z,6.18
2023-03-16T04:13:09.332Z,5.70
2023-03-16T04:15:39.106Z,4.68
2023-03-16T04:18:28.191Z,5.30
2023-03-16T04:20:56.438Z,4.60
2023-03-16T04:23:26.011Z,5.78
2023-03-16T04:25:54.827Z,5.95
2023-03-16T04:28:26.342Z,5.07
2023-03-16T04:30:56.135Z,5.40
2023-03-16T04:33:30.264Z,4.55
2023-03-16T04:35:58.295Z,5.70
2023-03-16T04:38:26.850Z,5.45
2023-03-16T04:40:57.199Z,5.18
2023-03-16T04:43:29.240Z,5.22
2023-03-16T04:46:06.155Z,5.43
2023-03-16T04:48:35.172Z,5.78
2023-03-16T04:51:05.891Z,4.13
2023-03-16T04:53:37.277Z,5.15
2023-03-16T04:56:18.318Z,5.55
2023-03-16T04:58:50.210Z,5.47
2023-03-16T05:01:20.876Z,5.32
2023-03-16T05:03:50.813Z,5.65
2023-03-16T05:06:18.978Z,4.32
2023-03-16T05:08:46.837Z,5.65
2023-03-16T05:11:14.751Z,4.80
2023-03-16T05:13:52.328Z,5.57
2023-03-16T05:16:21.908Z,5.63
2023-03-16T05:18:50.061Z,5.50
2023-03-16T05:21:17.932Z,5.35
2023-03-16T05:23:54.626Z,5.60
2023-03-16T05:26:22.647Z,3.65
2023-03-16T05:28:51.889Z,5.40
2023-03-16T05:31:26.553Z,4.93
2023-03-16T05:33:58.284Z,5.40
2023-03-16T05:36:26.327Z,4.20
2023-03-16T05:38:59.372Z,5.00
2023-03-16T05:41:37.801Z,4.30
2023-03-16T05:44:13.570Z,4.88
2023-03-16T05:47:01.406Z,5.30
2023-03-16T05:49:31.312Z,5.38
2023-03-16T05:52:01.082Z,5.03
2023-03-16T05:54:30.059Z,5.20
2023-03-16T05:56:57.939Z,5.18
2023-03-16T05:59:26.120Z,4.78
2023-03-16T06:04:26.974Z,4.65
2023-03-16T06:06:54.842Z,4.78
2023-03-16T06:09:26.584Z,4.53
2023-03-16T06:11:54.581Z,4.00
2023-03-16T06:14:23.193Z,4.15
2023-03-16T06:16:52.179Z,5.20
2023-03-16T06:19:20.515Z,4.05
2023-03-16T06:21:54.399Z,3.67
2023-03-16T06:24:22.604Z,2.95
2023-03-16T06:26:52.116Z,3.40
2023-03-16T06:29:21.382Z,4.15
2023-03-16T06:31:51.388Z,4.22
2023-03-16T06:34:19.792Z,4.90
2023-03-16T06:36:47.640Z,4.68
2023-03-16T06:39:17.287Z,4.70
2023-03-16T06:41:50.274Z,4.03
2023-03-16T06:44:18.861Z,3.80
2023-03-16T06:47:02.802Z,4.55
2023-03-16T06:49:31.289Z,5.15
2023-03-16T06:52:00.765Z,4.22
2023-03-16T06:54:32.346Z,3.90
2023-03-16T06:57:00.182Z,3.88
2023-03-16T06:59:28.798Z,4.18
2023-03-16T07:01:58.312Z,4.70
2023-03-16T07:04:26.288Z,3.67
2023-03-16T07:06:54.528Z,4.20
2023-03-16T07:09:22.406Z,4.72
2023-03-16T07:11:52.649Z,3.30
2023-03-16T07:14:22.798Z,4.15
2023-03-16T07:21:51.604Z,3.25
2023-03-16T07:24:22.519Z,4.43
2023-03-16T07:26:53.106Z,2.63
2023-03-16T07:29:27.336Z,3.88
2023-03-16T07:31:55.590Z,3.70
2023-03-16T07:34:29.168Z,3.05
2023-03-16T07:36:59.018Z,3.97
2023-03-16T07:39:30.135Z,3.92
2023-03-16T07:42:06.350Z,4.43
2023-03-16T07:44:46.492Z,3.35
2023-03-16T07:47:14.531Z,4.40
2023-03-16T07:49:44.194Z,4.03
2023-03-16T07:52:13.600Z,4.45
2023-03-16T07:54:42.403Z,4.30
2023-03-16T07:57:13.199Z,4.57
2023-03-16T07:59:43.655Z,4.18
2023-03-16T08:02:15.999Z,4.70
2023-03-16T08:04:44.584Z,4.13
2023-03-16T08:07:15.753Z,3.17
2023-03-16T08:09:54.069Z,3.78
2023-03-16T08:12:29.746Z,5.28
2023-03-16T08:14:57.713Z,3.10
2023-03-16T08:17:31.392Z,3.25
2023-03-16T08:20:01.203Z,4.07
2023-03-16T08:22:29.997Z,4.35
2023-03-16T08:24:58.162Z,4.20
2023-03-16T08:27:26.325Z,4.18
2023-03-16T08:30:04.648Z,4.60
2023-03-16T08:32:33.336Z,3.78
2023-03-16T08:35:01.527Z,4.55
2023-03-16T08:37:29.666Z,4.10
2023-03-16T08:40:00.387Z,3.58
2023-03-16T08:42:29.990Z,3.85
2023-03-16T08:45:12.229Z,3.92
2023-03-16T08:47:42.630Z,3.40
2023-03-16T08:50:13.434Z,4.03
2023-03-16T08:52:42.848Z,3.55
2023-03-16T08:55:13.326Z,4.30
2023-03-16T08:57:41.205Z,3.53
2023-03-16T09:00:13.597Z,3.33
2023-03-16T09:02:42.121Z,4.60
2023-03-16T09:05:11.050Z,4.53
2023-03-16T09:07:39.353Z,3.88
2023-03-16T09:10:07.785Z,4.05
2023-03-16T09:12:37.970Z,4.03
2023-03-16T09:15:06.921Z,4.30
2023-03-16T09:17:36.275Z,4.00
2023-03-16T09:20:21.172Z,3.40
2023-03-16T09:22:50.034Z,3.92
2023-03-16T09:25:17.906Z,3.13
2023-03-16T09:27:45.681Z,3.42
2023-03-16T09:30:16.653Z,3.72
2023-03-16T09:32:48.635Z,3.88
2023-03-16T09:35:16.669Z,3.78
2023-03-16T09:38:01.066Z,4.20
2023-03-16T09:40:33.409Z,3.97
2023-03-16T09:43:30.378Z,3.25
2023-03-16T09:46:07.999Z,2.78
2023-03-16T09:48:39.708Z,4.22
2023-03-16T09:51:13.615Z,3.38
2023-03-16T09:53:41.966Z,4.15
2023-03-16T09:56:13.482Z,3.70
2023-03-16T09:58:41.754Z,4.28
2023-03-16T10:01:19.102Z,2.83
2023-03-16T10:04:01.802Z,4.05
2023-03-16T10:06:31.205Z,3.92
2023-03-16T10:09:08.447Z,1.98
2023-03-16T10:14:17.650Z,3.92
2023-03-16T10:16:50.495Z,2.80
2023-03-16T10:19:27.129Z,3.70
2023-03-16T10:21:58.935Z,3.95
2023-03-16T10:24:44.731Z,3.97
2023-03-16T10:27:21.451Z,3.15
2023-03-16T10:29:49.713Z,3.95
2023-03-16T10:32:19.609Z,3.63
2023-03-16T10:34:56.002Z,3.30
2023-03-16T10:37:25.515Z,3.95
2023-03-16T10:39:53.460Z,3.40
2023-03-16T10:42:22.362Z,2.88
2023-03-16T10:44:50.633Z,3.00
2023-03-16T10:47:21.164Z,2.88
2023-03-16T10:49:51.391Z,3.75
2023-03-16T10:52:21.651Z,3.17
2023-03-16T10:54:52.676Z,3.20
2023-03-16T10:57:25.405Z,3.10
2023-03-16T10:59:56.747Z,2.38
2023-03-16T11:02:31.807Z,3.88
2023-03-16T11:05:01.639Z,3.10
2023-03-16T11:07:29.452Z,3.78
2023-03-16T11:09:58.684Z,2.72
2023-03-16T11:12:30.175Z,3.60
2023-03-16T11:15:04.731Z,3.38
2023-03-16T11:17:39.788Z,3.20
2023-03-16T11:20:17.604Z,3.35
2023-03-16T11:22:47.230Z,3.38
2023-03-16T11:25:20.376Z,3.50
2023-03-16T11:27:52.967Z,3.72
2023-03-16T11:30:27.125Z,2.70
2023-03-16T11:32:55.018Z,3.63
2023-03-16T11:35:35.040Z,3.50
2023-03-16T11:38:12.795Z,2.50
2023-03-16T11:40:50.165Z,3.30
2023-03-16T11:43:41.756Z,4.43
2023-03-16T11:46:16.793Z,3.30
2023-03-16T11:48:48.048Z,2.50
2023-03-16T11:54:03.180Z,2.20
2023-03-16T11:56:35.859Z,3.60
2023-03-16T11:59:28.005Z,3.40
2023-03-16T12:02:06.127Z,3.05
2023-03-16T12:04:50.910Z,2.95
2023-03-16T12:07:31.607Z,2.70
2023-03-16T12:10:07.990Z,3.28
2023-03-16T12:12:50.345Z,2.70
2023-03-16T12:15:30.949Z,3.35
2023-03-16T12:18:06.248Z,2.90
2023-03-16T12:20:39.392Z,2.35
2023-03-16T12:23:14.838Z,3.33
2023-03-16T12:25:47.470Z,2.90
2023-03-16T12:28:22.168Z,2.92
2023-03-16T12:30:59.077Z,2.58
2023-03-16T12:33:40.739Z,2.33
2023-03-16T12:36:32.971Z,3.13
2023-03-16T12:39:06.415Z,2.65
2023-03-16T12:41:46.157Z,2.72
2023-03-16T12:44:19.058Z,2.05
2023-03-16T12:46:57.778Z,2.78
2023-03-16T12:49:28.403Z,2.42
2023-03-16T12:52:01.462Z,2.60
2023-03-16T12:54:31.218Z,2.63
2023-03-16T12:57:04.624Z,2.45
2023-03-16T12:59:42.801Z,2.60
2023-03-16T13:02:15.706Z,2.50
2023-03-16T13:04:46.425Z,2.70
2023-03-16T13:07:20.309Z,2.80
2023-03-16T13:09:55.054Z,2.85
2023-03-16T13:12:25.899Z,2.28
2023-03-16T13:14:55.011Z,2.42
2023-03-16T13:17:31.814Z,2.03
2023-03-16T13:20:04.071Z,2.53
2023-03-16T13:22:42.994Z,2.35
2023-03-16T13:25:22.146Z,1.77
2023-03-16T13:27:53.652Z,1.83
2023-03-16T13:30:24.432Z,1.83
2023-03-16T13:32:55.249Z,2.08
2023-03-16T13:35:28.188Z,1.73
2023-03-16T13:38:05.634Z,2.45
2023-03-16T13:40:37.983Z,1.77
2023-03-16T13:43:06.735Z,2.13
2023-03-16T13:45:38.741Z,1.65
2023-03-16T13:48:06.770Z,1.70
2023-03-16T13:50:36.068Z,1.90
2023-03-16T13:53:06.508Z,1.90
2023-03-16T13:55:38.581Z,1.80
2023-03-16T13:58:06.944Z,1.92
2023-03-16T14:00:36.986Z,1.52
2023-03-16T14:03:16.189Z,1.63
2023-03-16T14:05:44.279Z,2.13
2023-03-16T14:08:20.730Z,1.80
2023-03-16T14:10:51.055Z,1.90
2023-03-16T14:13:32.982Z,2.42
2023-03-16T14:16:03.379Z,1.85
2023-03-16T14:18:36.056Z,2.00
2023-03-16T14:21:09.171Z,1.90
2023-03-16T14:23:40.698Z,1.80
2023-03-16T14:26:15.079Z,1.55
2023-03-16T14:28:54.504Z,1.98
2023-03-16T14:31:22.710Z,2.20
2023-03-16T14:34:01.857Z,1.73
2023-03-16T14:36:36.803Z,1.73
2023-03-16T14:39:16.802Z,1.75
2023-03-16T14:41:50.313Z,1.90
2023-03-16T14:44:22.458Z,1.88
2023-03-16T14:46:51.143Z,1.95
2023-03-16T14:49:22.727Z,1.77
2023-03-16T14:51:53.760Z,1.65
2023-03-16T14:54:23.278Z,1.80
2023-03-16T14:56:54.213Z,1.95
2023-03-16T15:01:51.181Z,1.60
2023-03-16T15:04:25.869Z,1.70
2023-03-16T15:06:54.097Z,1.80
2023-03-16T15:09:34.604Z,1.75
2023-03-16T15:12:04.077Z,1.70
2023-03-16T15:14:49.228Z,1.70
2023-03-16T15:17:17.006Z,2.00
2023-03-16T15:19:44.794Z,1.85
2023-03-16T15:22:14.512Z,1.50
2023-03-16T15:24:42.540Z,1.88
2023-03-16T15:27:21.101Z,1.60
2023-03-16T15:29:48.988Z,1.70
2023-03-16T15:32:17.260Z,1.70
2023-03-16T15:34:46.451Z,1.73
2023-03-16T15:37:17.240Z,1.55
2023-03-16T15:39:46.180Z,2.00
2023-03-16T15:42:18.219Z,1.67
2023-03-16T15:44:47.069Z,1.70
2023-03-16T15:47:15.407Z,1.50
2023-03-16T15:49:47.833Z,1.60
2023-03-16T15:52:27.575Z,1.80
2023-03-16T15:54:57.362Z,1.60
2023-03-16T15:57:26.951Z,1.77
2023-03-16T15:59:54.771Z,2.00
2023-03-16T16:02:28.561Z,1.60
2023-03-16T16:04:57.078Z,1.63
2023-03-16T16:07:25.161Z,1.55
2023-03-16T16:09:53.053Z,2.10
2023-03-16T16:12:26.669Z,1.70
2023-03-16T16:14:56.968Z,1.63
2023-03-16T16:17:43.976Z,1.55
2023-03-16T16:20:21.476Z,1.73
2023-03-16T16:22:50.364Z,1.70
2023-03-16T16:25:18.565Z,1.90
2023-03-16T16:27:47.046Z,1.63
2023-03-16T16:30:23.623Z,1.63
2023-03-16T16:32:52.132Z,1.73
2023-03-16T16:35:22.064Z,2.00
2023-03-16T16:37:50.407Z,2.03
2023-03-16T16:40:19.555Z,1.83
2023-03-16T16:42:48.541Z,1.63
2023-03-16T16:45:22.768Z,2.05
2023-03-16T16:47:53.623Z,1.80
2023-03-16T16:50:25.057Z,2.00
2023-03-16T16:52:54.069Z,2.03
2023-03-16T16:55:22.895Z,2.22
2023-03-16T16:57:53.801Z,1.80
2023-03-16T17:02:53.785Z,1.70
2023-03-16T17:05:23.152Z,2.28
2023-03-16T17:07:51.468Z,2.33
2023-03-16T17:10:21.324Z,2.08
2023-03-16T17:12:50.487Z,2.10
2023-03-16T17:15:26.169Z,2.25
2023-03-16T17:17:59.452Z,2.33
2023-03-16T17:20:27.366Z,2.50
2023-03-16T17:22:55.764Z,2.60
2023-03-16T17:25:23.640Z,2.35
2023-03-16T17:27:54.320Z,2.17
2023-03-16T17:30:28.794Z,2.10
2023-03-16T17:33:00.085Z,2.40
2023-03-16T17:35:28.469Z,2.13
2023-03-16T17:37:56.818Z,1.92
2023-03-16T17:40:26.270Z,2.10
2023-03-16T17:42:56.397Z,2.08
2023-03-16T17:45:28.827Z,1.90
2023-03-16T17:47:57.036Z,2.00
2023-03-16T17:50:29.297Z,2.22
2023-03-16T17:52:57.346Z,2.20
2023-03-16T17:55:25.859Z,2.10
2023-03-16T17:57:55.886Z,2.08
2023-03-16T18:00:32.410Z,2.30
2023-03-16T18:03:02.638Z,2.00
2023-03-16T18:05:32.205Z,2.13
2023-03-16T18:08:04.857Z,2.30
2023-03-16T18:10:33.984Z,2.20
2023-03-16T18:13:04.418Z,2.60
2023-03-16T18:15:36.430Z,2.53
2023-03-16T18:18:07.205Z,3.30
2023-03-16T18:20:36.689Z,3.10
2023-03-16T18:23:16.154Z,3.05
2023-03-16T18:25:44.838Z,2.78
2023-03-16T18:28:13.836Z,2.67
2023-03-16T18:30:45.207Z,3.30
2023-03-16T18:33:25.892Z,2.83
2023-03-16T18:35:55.482Z,3.53
2023-03-16T18:38:30.527Z,3.28
2023-03-16T18:40:59.700Z,3.42
2023-03-16T18:43:27.846Z,3.13
2023-03-16T18:45:57.258Z,3.20
2023-03-16T18:48:30.418Z,3.10
2023-03-16T18:50:58.480Z,3.13
2023-03-16T18:53:28.120Z,3.35
2023-03-16T18:55:57.497Z,3.38
2023-03-16T18:58:25.800Z,3.05
2023-03-16T19:00:56.901Z,3.08
2023-03-16T19:03:29.009Z,2.90
2023-03-16T19:05:58.377Z,3.22
2023-03-16T19:08:27.771Z,3.35
2023-03-16T19:10:57.796Z,2.70
2023-03-16T19:13:26.256Z,2.97
2023-03-16T19:15:56.230Z,2.70
2023-03-16T19:18:26.091Z,2.45
2023-03-16T19:20:57.153Z,2.55
2023-03-16T19:23:28.529Z,2.92
2023-03-16T19:25:57.910Z,2.45
2023-03-16T19:28:33.617Z,2.42
2023-03-16T19:31:02.355Z,2.65
2023-03-16T19:33:30.653Z,2.38
2023-03-16T19:36:00.148Z,2.50
2023-03-16T19:38:28.344Z,2.47
2023-03-16T19:40:58.833Z,2.58
2023-03-16T19:43:28.056Z,2.67
2023-03-16T19:45:56.710Z,2.45
2023-03-16T19:48:32.142Z,2.63
2023-03-16T19:51:01.409Z,2.45
2023-03-16T19:53:29.280Z,2.50
2023-03-16T19:55:57.028Z,2.67
2023-03-16T19:58:31.370Z,2.55
2023-03-16T20:01:01.045Z,2.90
2023-03-16T20:03:28.926Z,2.45
2023-03-16T20:05:56.700Z,2.42
2023-03-16T20:08:27.439Z,2.50
2023-03-16T20:11:00.921Z,2.83
2023-03-16T20:13:30.676Z,2.42
2023-03-16T20:15:58.510Z,2.60
2023-03-16T20:18:26.355Z,2.95
2023-03-16T20:20:54.144Z,2.63
2023-03-16T20:23:25.864Z,2.95
2023-03-16T20:25:55.776Z,2.63
2023-03-16T20:28:25.734Z,3.10
2023-03-16T20:30:53.959Z,2.80
2023-03-16T20:33:24.222Z,2.65
2023-03-16T20:35:53.628Z,2.85
2023-03-16T20:38:21.944Z,2.47
2023-03-16T20:40:53.242Z,2.85
2023-03-16T20:43:25.302Z,2.72
2023-03-16T20:45:55.461Z,2.60
2023-03-16T20:48:25.388Z,2.45
2023-03-16T20:50:53.635Z,2.58
2023-03-16T20:53:21.697Z,2.58
2023-03-16T20:55:51.315Z,2.70
2023-03-16T20:58:21.904Z,2.60
2023-03-16T21:00:51.250Z,2.63
2023-03-16T21:03:20.863Z,2.20
2023-03-16T21:05:48.994Z,2.50
2023-03-16T21:08:16.837Z,2.10
2023-03-16T21:10:46.494Z,2.55
2023-03-16T21:13:20.003Z,2.50
2023-03-16T21:15:49.926Z,2.75
2023-03-16T21:18:20.208Z,2.90
2023-03-16T21:20:51.610Z,2.50
2023-03-16T21:23:21.588Z,2.80
2023-03-16T21:25:51.764Z,2.55
2023-03-16T21:28:21.815Z,2.72
2023-03-16T21:30:52.759Z,2.92
2023-03-16T21:33:29.841Z,2.90
2023-03-16T21:35:58.512Z,2.60
2023-03-16T21:38:29.177Z,3.13
2023-03-16T21:40:57.472Z,3.05
2023-03-16T21:43:26.777Z,3.20
2023-03-16T21:45:56.705Z,2.92
2023-03-16T21:48:26.676Z,2.85
2023-03-16T21:50:54.862Z,2.80
2023-03-16T21:53:24.925Z,2.85
2023-03-16T21:55:54.574Z,2.75
2023-03-16T21:58:23.257Z,2.97
2023-03-16T22:00:54.031Z,2.70
2023-03-16T22:03:32.981Z,2.92
2023-03-16T22:06:06.900Z,2.40
2023-03-16T22:08:35.718Z,2.50
2023-03-16T22:11:03.914Z,2.75
2023-03-16T22:13:33.417Z,2.90
2023-03-16T22:16:03.512Z,2.88
2023-03-16T22:18:34.562Z,2.60
2023-03-16T22:21:05.043Z,3.28
2023-03-16T22:23:35.287Z,2.78
2023-03-16T22:26:04.225Z,2.78
2023-03-16T22:28:33.875Z,3.22
2023-03-16T22:31:05.151Z,3.00
2023-03-16T22:36:06.328Z,3.13
2023-03-16T22:38:34.215Z,2.80
2023-03-16T22:41:02.223Z,2.97
2023-03-16T22:43:33.105Z,3.00
2023-03-16T22:46:00.986Z,2.95
2023-03-16T22:48:31.891Z,3.22
2023-03-16T22:51:03.812Z,2.60
2023-03-16T22:53:38.896Z,3.08
2023-03-16T22:56:08.008Z,3.10
2023-03-16T22:58:38.406Z,3.20
2023-03-16T23:01:17.699Z,3.17
2023-03-16T23:03:49.551Z,3.03
2023-03-16T23:06:19.042Z,3.38
2023-03-16T23:08:47.654Z,3.20
2023-03-16T23:11:23.906Z,3.80
2023-03-16T23:13:53.425Z,3.42
2023-03-16T23:16:24.719Z,3.17
2023-03-16T23:18:54.352Z,3.22
2023-03-16T23:21:24.688Z,3.40
2023-03-16T23:24:03.637Z,3.33
2023-03-16T23:26:32.906Z,3.33
2023-03-16T23:29:00.742Z,3.80
2023-03-16T23:31:28.860Z,3.67
2023-03-16T23:33:58.132Z,3.25
2023-03-16T23:36:27.330Z,3.78
2023-03-16T23:38:55.236Z,3.45
2023-03-16T23:41:25.298Z,3.53
2023-03-16T23:43:54.068Z,3.28
2023-03-16T23:46:24.612Z,3.42
2023-03-16T23:48:54.404Z,3.17
2023-03-16T23:51:27.108Z,3.70
2023-03-16T23:53:55.702Z,3.88
2023-03-16T23:56:24.185Z,3.72
2023-03-16T23:58:52.022Z,3.80
